Two Rivers, Alaska
Current Conditions -  °F | °C
As of 3:58 AM on Monday 22 Dec 2014 (Local Time) from PAEI Reporting Station
Clear Clear  
Wind Chill: -9°   Ceiling: Unl
Heat Index: -9°   Visibility: 10mi
Dew Point: -14°   Wind: 0mph
Humidity: 78%   Direction: NA
Pressure: 29.71"   Gusts: NA
Location:  64.87°N, 147.09°W
Report Text: PAEI 221258Z AUTO 00000KT 10SM CLR M23/M26 A2971 RMK AO2 SLP081 T12281257 $
Loading
Personal Weather Stations






























Interactive Weather Map New forecast layout! Learn more

10-Day Weather Forecast

Advertisements
Track Severe Weather on mobile